Time;durP1;ratioP1;P1;durP2;ratioP2;P2;SDS_P1;SDS_P2;PMS_P1;PMS_P2;Temp;Humidity;BMP_temperature;BMP_pressure;BME280_temperature;BME280_humidity;BME280_pressure;Samples;Min_cycle;Max_cycle;Signal;HPM_P1;HPM_P2
2022/10/10 00:01:47;;;;;;;78.47;33.63;;;8.10;99.90;;;;;;5024135;28;20166;-84
2022/10/10 00:04:13;;;;;;;77.67;36.07;;;8.00;99.90;;;;;;5024211;28;20209;-84
2022/10/10 00:06:38;;;;;;;79.27;38.83;;;8.00;99.90;;;;;;5024213;28;20186;-84
2022/10/10 00:09:04;;;;;;;80.13;41.80;;;8.10;99.90;;;;;;5024436;28;20216;-84
2022/10/10 00:11:31;;;;;;;83.73;46.83;;;8.00;99.90;;;;;;5024359;28;20177;-84
2022/10/10 00:13:56;;;;;;;84.35;52.72;;;8.10;99.90;;;;;;5023408;28;20405;-84
2022/10/10 00:16:22;;;;;;;83.00;43.10;;;8.10;99.90;;;;;;5023842;28;20533;-84
2022/10/10 00:18:48;;;;;;;80.77;36.50;;;8.10;99.90;;;;;;5024073;28;20451;-84
2022/10/10 00:21:14;;;;;;;80.07;42.13;;;8.00;99.90;;;;;;5023773;28;20194;-84
2022/10/10 00:23:40;;;;;;;85.03;43.75;;;8.00;99.90;;;;;;5006941;28;20174;-84
2022/10/10 00:26:06;;;;;;;78.33;36.23;;;8.00;99.90;;;;;;5023939;28;20253;-84
2022/10/10 00:28:32;;;;;;;80.82;43.28;;;8.00;99.90;;;;;;5023369;28;20197;-84
2022/10/10 00:30:58;;;;;;;88.23;54.00;;;8.10;99.90;;;;;;5023679;28;20190;-84
2022/10/10 00:33:24;;;;;;;87.75;54.55;;;8.10;99.90;;;;;;5006304;28;20166;-84
2022/10/10 00:35:50;;;;;;;84.97;49.83;;;8.20;99.90;;;;;;5023013;28;20177;-85
2022/10/10 00:38:15;;;;;;;82.97;49.43;;;8.20;99.90;;;;;;5022888;28;20190;-84
2022/10/10 00:40:46;;;;;;;83.33;48.73;;;8.20;99.90;;;;;;5023716;28;20416;-84
2022/10/10 00:43:13;;;;;;;84.00;50.92;;;8.10;99.90;;;;;;5022895;28;20189;-84
2022/10/10 00:45:41;;;;;;;82.65;47.50;;;8.10;99.90;;;;;;5022656;28;20200;-84
2022/10/10 00:48:12;;;;;;;79.55;39.97;;;8.20;99.90;;;;;;5022430;28;20185;-84
2022/10/10 00:50:45;;;;;;;81.55;40.55;;;8.10;99.90;;;;;;5022575;28;20186;-84
2022/10/10 00:53:13;;;;;;;82.50;46.33;;;8.10;99.90;;;;;;5022237;28;20161;-84
2022/10/10 00:55:39;;;;;;;83.13;44.42;;;8.00;99.90;;;;;;5021160;28;20212;-84
2022/10/10 00:58:07;;;;;;;80.20;32.07;;;8.10;99.90;;;;;;5021492;28;20661;-84
2022/10/10 01:00:32;;;;;;;82.63;25.48;;;8.00;99.90;;;;;;5021514;28;20512;-84
2022/10/10 01:02:58;;;;;;;75.20;21.97;;;8.00;99.90;;;;;;5021321;28;20190;-84
2022/10/10 01:05:24;;;;;;;77.90;29.97;;;8.00;99.90;;;;;;5021495;28;20177;-84
2022/10/10 01:07:50;;;;;;;74.83;21.97;;;8.10;99.90;;;;;;5021417;28;20452;-84
2022/10/10 01:10:19;;;;;;;76.60;20.93;;;8.00;99.90;;;;;;5021274;28;20472;-84
2022/10/10 01:12:52;;;;;;;72.90;17.65;;;8.00;99.90;;;;;;5021887;28;20416;-84
2022/10/10 01:15:20;;;;;;;73.45;15.05;;;8.00;99.90;;;;;;5021236;28;20161;-84
2022/10/10 01:17:58;;;;;;;75.10;17.95;;;7.80;99.90;;;;;;5020999;28;20162;-84
2022/10/10 01:20:52;;;;;;;68.10;11.48;;;7.70;99.90;;;;;;5003582;28;20233;-84
2022/10/10 01:23:43;;;;;;;71.00;13.00;;;7.80;99.90;;;;;;5020921;28;20150;-85
2022/10/10 01:26:15;;;;;;;70.53;14.27;;;7.70;99.90;;;;;;5020888;28;20165;-85
2022/10/10 01:28:55;;;;;;;74.40;14.05;;;7.70;99.90;;;;;;5020980;28;20573;-85
2022/10/10 01:31:23;;;;;;;73.78;13.82;;;7.80;99.90;;;;;;5020521;28;20264;-85
2022/10/10 01:34:24;;;;;;;71.13;12.52;;;7.90;99.90;;;;;;5021304;28;20241;-85
2022/10/10 01:37:28;;;;;;;72.15;12.50;;;7.80;99.90;;;;;;5010458;28;20177;-85
2022/10/10 01:39:57;;;;;;;69.90;11.70;;;7.70;99.90;;;;;;4960342;29;20238;-85
2022/10/10 01:42:42;;;;;;;73.00;13.02;;;7.90;99.90;;;;;;5011100;28;20177;-85
2022/10/10 01:45:08;;;;;;;73.75;18.23;;;7.90;99.90;;;;;;5020280;28;20245;-85
2022/10/10 01:47:34;;;;;;;70.50;18.60;;;8.00;99.90;;;;;;5020615;28;20220;-85
2022/10/10 01:50:08;;;;;;;75.57;19.77;;;7.90;99.90;;;;;;5023017;28;20185;-85
2022/10/10 01:52:51;;;;;;;70.07;15.38;;;7.90;99.90;;;;;;5024222;28;20241;-85
2022/10/10 01:55:22;;;;;;;71.75;14.23;;;7.80;99.90;;;;;;5023723;28;20162;-84
2022/10/10 01:58:09;;;;;;;73.40;18.08;;;7.70;99.90;;;;;;5022349;28;20158;-85
2022/10/10 02:00:47;;;;;;;69.95;15.68;;;7.70;99.90;;;;;;5023078;28;20185;-85
2022/10/10 02:03:19;;;;;;;77.60;18.00;;;7.70;99.90;;;;;;5023002;28;20154;-85
2022/10/10 02:05:51;;;;;;;73.65;16.38;;;7.80;99.90;;;;;;5023366;28;20186;-85
2022/10/10 02:08:40;;;;;;;72.60;16.50;;;7.80;99.90;;;;;;5024508;28;20264;-85
2022/10/10 02:11:11;;;;;;;72.40;15.35;;;7.80;99.90;;;;;;5021919;28;20178;-85
2022/10/10 02:14:06;;;;;;;72.00;17.52;;;7.80;99.90;;;;;;5021630;28;20146;-85
2022/10/10 02:16:39;;;;;;;77.75;16.02;;;7.70;99.90;;;;;;5020563;28;20184;-85
2022/10/10 02:19:09;;;;;;;76.82;19.02;;;7.70;99.90;;;;;;5021215;28;20327;-85
2022/10/10 02:21:37;;;;;;;74.35;19.83;;;7.80;99.90;;;;;;5021124;28;20181;-85
2022/10/10 02:24:06;;;;;;;74.82;18.63;;;7.80;99.90;;;;;;5021291;28;20169;-85
2022/10/10 02:26:37;;;;;;;74.15;16.60;;;7.80;99.90;;;;;;5021130;28;20158;-85
2022/10/10 02:29:10;;;;;;;73.28;19.02;;;7.80;99.90;;;;;;5021110;28;20178;-85
2022/10/10 02:32:03;;;;;;;76.55;17.85;;;7.80;99.90;;;;;;5021579;28;20154;-85
2022/10/10 02:34:36;;;;;;;71.47;16.45;;;7.80;99.90;;;;;;5003821;28;20177;-85
2022/10/10 02:37:07;;;;;;;72.10;17.38;;;7.80;99.90;;;;;;5021826;28;20181;-85
2022/10/10 02:39:35;;;;;;;74.22;17.23;;;7.80;99.90;;;;;;5024806;28;20272;-85
2022/10/10 02:42:04;;;;;;;69.68;16.05;;;7.80;99.90;;;;;;5024294;28;20176;-85
2022/10/10 02:44:33;;;;;;;71.28;18.02;;;7.80;99.90;;;;;;5025302;28;20165;-85
2022/10/10 02:46:59;;;;;;;78.45;19.23;;;7.80;99.90;;;;;;5024420;28;20169;-85
2022/10/10 02:49:27;;;;;;;74.03;22.25;;;7.80;99.90;;;;;;5023929;28;20320;-85
2022/10/10 02:51:53;;;;;;;73.13;22.65;;;7.70;99.90;;;;;;5024534;28;20168;-85
2022/10/10 02:54:19;;;;;;;75.77;24.40;;;7.70;99.90;;;;;;5024297;28;20197;-85
2022/10/10 02:56:45;;;;;;;73.40;21.67;;;7.70;99.90;;;;;;5006709;28;20174;-85
2022/10/10 02:59:10;;;;;;;78.63;24.77;;;7.70;99.90;;;;;;5023705;28;20181;-85
2022/10/10 03:01:36;;;;;;;74.17;23.27;;;7.80;99.90;;;;;;5023935;28;20443;-85
2022/10/10 03:04:02;;;;;;;75.00;27.57;;;7.80;99.90;;;;;;5024016;28;20194;-85
2022/10/10 03:06:27;;;;;;;73.97;25.57;;;7.80;99.90;;;;;;5006805;28;20182;-85
2022/10/10 03:08:53;;;;;;;73.20;22.80;;;7.70;99.90;;;;;;5023892;28;20277;-85
2022/10/10 03:11:19;;;;;;;75.77;27.87;;;7.70;99.90;;;;;;5023210;28;20194;-85
2022/10/10 03:13:45;;;;;;;75.83;30.43;;;7.70;99.90;;;;;;5022972;28;20166;-85
2022/10/10 03:16:10;;;;;;;75.70;32.63;;;7.80;99.90;;;;;;5022964;28;20175;-85
2022/10/10 03:18:36;;;;;;;74.57;27.10;;;7.80;99.90;;;;;;5022647;28;20197;-85
2022/10/10 03:21:03;;;;;;;80.03;35.15;;;7.70;99.90;;;;;;5022594;28;20455;-85
2022/10/10 03:23:28;;;;;;;79.65;32.67;;;7.80;99.90;;;;;;5022670;28;20174;-85
2022/10/10 03:25:54;;;;;;;78.60;32.70;;;7.80;99.90;;;;;;5022503;28;20224;-85
2022/10/10 03:28:20;;;;;;;78.37;37.90;;;7.80;99.90;;;;;;5023649;28;20657;-85
2022/10/10 03:30:46;;;;;;;82.32;38.53;;;7.80;99.90;;;;;;5022741;28;20277;-85
2022/10/10 03:33:12;;;;;;;84.47;41.60;;;7.80;99.90;;;;;;5022124;28;20166;-85
2022/10/10 03:35:38;;;;;;;81.07;40.63;;;7.90;99.90;;;;;;5022674;28;20173;-85
2022/10/10 03:38:05;;;;;;;80.67;40.07;;;7.90;99.90;;;;;;5022496;28;20421;-85
2022/10/10 03:40:31;;;;;;;81.50;40.92;;;7.90;99.90;;;;;;5023091;28;20424;-85
2022/10/10 03:42:57;;;;;;;79.68;36.30;;;7.90;99.90;;;;;;5025518;28;20166;-85
2022/10/10 03:45:23;;;;;;;82.93;42.10;;;7.90;99.90;;;;;;5025441;28;20170;-84
2022/10/10 03:47:49;;;;;;;83.78;42.65;;;7.90;99.90;;;;;;5007004;28;20614;-85
2022/10/10 03:50:15;;;;;;;79.72;37.67;;;7.90;99.90;;;;;;5024097;28;20573;-85
2022/10/10 03:52:40;;;;;;;85.07;43.17;;;7.90;99.90;;;;;;5025495;28;20170;-84
2022/10/10 03:55:07;;;;;;;80.53;38.63;;;7.90;99.90;;;;;;5009213;28;20753;-85
2022/10/10 03:57:32;;;;;;;81.80;41.42;;;7.90;99.90;;;;;;5023036;28;20253;-84
2022/10/10 03:59:58;;;;;;;82.93;41.47;;;8.00;99.90;;;;;;5006017;28;20194;-84
2022/10/10 04:02:24;;;;;;;84.73;43.90;;;7.90;99.90;;;;;;5022963;28;20169;-85
2022/10/10 04:04:49;;;;;;;85.43;44.13;;;8.00;99.90;;;;;;5022915;28;20162;-85
2022/10/10 04:07:15;;;;;;;91.17;43.57;;;8.00;99.90;;;;;;5022993;28;20241;-85
2022/10/10 04:09:41;;;;;;;81.20;39.10;;;8.00;99.90;;;;;;5022729;28;20200;-85
2022/10/10 04:12:07;;;;;;;84.50;43.97;;;7.90;99.90;;;;;;5023250;28;20408;-85
2022/10/10 04:14:32;;;;;;;80.60;40.30;;;7.90;99.90;;;;;;5023442;28;20169;-85
2022/10/10 04:16:58;;;;;;;84.57;44.77;;;7.90;99.90;;;;;;5022454;28;20250;-85
2022/10/10 04:19:24;;;;;;;86.13;43.43;;;7.90;99.90;;;;;;5022199;28;20182;-85
2022/10/10 04:21:50;;;;;;;86.73;46.50;;;7.90;99.90;;;;;;5022730;28;20240;-85
2022/10/10 04:24:16;;;;;;;86.37;46.47;;;7.90;99.90;;;;;;5023093;28;20173;-85
2022/10/10 04:26:41;;;;;;;82.43;45.37;;;7.80;99.90;;;;;;5022150;28;20166;-85
2022/10/10 04:29:07;;;;;;;81.37;37.10;;;7.90;99.90;;;;;;5021959;28;20417;-85
2022/10/10 04:31:34;;;;;;;82.53;44.70;;;7.90;99.90;;;;;;5022098;28;20198;-85
2022/10/10 04:33:59;;;;;;;81.90;40.33;;;7.90;99.90;;;;;;5021858;28;20229;-85
2022/10/10 04:36:25;;;;;;;84.90;38.33;;;7.80;99.90;;;;;;5021846;28;20189;-84
2022/10/10 04:38:51;;;;;;;86.20;46.90;;;7.80;99.90;;;;;;5021551;28;20196;-85
2022/10/10 04:41:17;;;;;;;87.33;36.70;;;7.90;99.90;;;;;;5022256;28;20260;-84
2022/10/10 04:43:42;;;;;;;80.73;39.10;;;7.90;99.90;;;;;;5022575;28;20174;-85
2022/10/10 04:46:08;;;;;;;80.27;34.40;;;7.80;99.90;;;;;;5021211;28;20253;-85
2022/10/10 04:48:34;;;;;;;79.77;33.90;;;7.90;99.90;;;;;;5021944;28;20181;-85
2022/10/10 04:50:59;;;;;;;77.97;27.27;;;7.80;99.90;;;;;;5021808;28;20190;-85
2022/10/10 04:53:26;;;;;;;77.67;25.50;;;7.90;99.90;;;;;;5021119;28;20166;-85
2022/10/10 04:55:52;;;;;;;76.53;25.60;;;7.80;99.90;;;;;;5022303;28;20169;-85
2022/10/10 04:58:18;;;;;;;75.72;23.02;;;7.80;99.90;;;;;;5021420;28;20571;-85
2022/10/10 05:00:44;;;;;;;75.32;19.83;;;7.80;99.90;;;;;;5020774;28;20170;-85
2022/10/10 05:03:11;;;;;;;75.97;21.90;;;7.90;99.90;;;;;;5020969;28;20165;-85
2022/10/10 05:05:38;;;;;;;75.57;27.88;;;7.90;99.90;;;;;;5021567;28;20174;-85
2022/10/10 05:08:04;;;;;;;79.18;35.13;;;7.90;99.90;;;;;;5075837;22;20271;-86
2022/10/10 05:10:37;;;;;;;81.00;32.33;;;7.90;99.90;;;;;;5040016;28;20193;-84
2022/10/10 05:13:03;;;;;;;79.18;34.92;;;7.90;99.90;;;;;;5022562;28;20161;-84
2022/10/10 05:15:29;;;;;;;76.50;28.80;;;7.90;99.90;;;;;;5041009;28;20158;-84
2022/10/10 05:17:54;;;;;;;78.27;25.47;;;7.90;99.90;;;;;;5023418;28;20507;-84
2022/10/10 05:20:20;;;;;;;78.13;28.60;;;7.90;99.90;;;;;;5041696;28;20165;-84
2022/10/10 05:22:46;;;;;;;78.63;26.07;;;7.90;99.90;;;;;;5040389;28;20173;-84
2022/10/10 05:25:12;;;;;;;76.50;26.10;;;7.90;99.90;;;;;;5041572;28;20482;-84
2022/10/10 05:27:41;;;;;;;75.67;26.33;;;7.90;99.90;;;;;;5023468;28;20420;-84
2022/10/10 05:30:10;;;;;;;80.05;25.95;;;7.90;99.90;;;;;;5024993;28;20204;-84
2022/10/10 05:32:39;;;;;;;74.50;26.17;;;7.90;99.90;;;;;;5041328;28;20181;-84
2022/10/10 05:35:06;;;;;;;77.20;21.85;;;7.80;99.90;;;;;;5040304;28;20219;-84
2022/10/10 05:37:32;;;;;;;78.78;18.10;;;7.80;99.90;;;;;;5041100;28;20161;-85
2022/10/10 05:39:58;;;;;;;73.10;18.10;;;7.70;99.90;;;;;;5023698;28;20223;-84
2022/10/10 05:42:23;;;;;;;71.97;16.57;;;7.70;99.90;;;;;;5024556;28;20412;-84
2022/10/10 05:44:49;;;;;;;74.83;16.97;;;7.70;99.90;;;;;;5024806;28;20986;-84
2022/10/10 05:47:15;;;;;;;75.07;16.10;;;7.70;99.90;;;;;;5024610;28;20173;-84
2022/10/10 05:49:41;;;;;;;69.93;14.63;;;7.70;99.90;;;;;;5024207;28;20656;-84
2022/10/10 05:52:10;;;;;;;76.47;15.23;;;7.70;99.90;;;;;;5024807;28;20211;-84
2022/10/10 05:54:35;;;;;;;74.75;14.55;;;7.70;99.90;;;;;;5044118;28;20415;-84
2022/10/10 05:57:01;;;;;;;72.30;13.57;;;7.80;99.90;;;;;;5044313;28;20525;-84
2022/10/10 05:59:28;;;;;;;81.70;15.07;;;7.70;99.90;;;;;;5043241;28;20188;-84
2022/10/10 06:01:56;;;;;;;74.00;12.80;;;7.80;99.90;;;;;;5025213;28;20168;-84
2022/10/10 06:04:22;;;;;;;71.60;13.60;;;7.80;99.90;;;;;;5026268;28;20168;-83
2022/10/10 06:06:49;;;;;;;75.80;14.53;;;7.80;99.90;;;;;;5024853;28;20185;-84
2022/10/10 06:09:15;;;;;;;75.80;14.00;;;7.90;99.90;;;;;;5042425;28;20492;-84
2022/10/10 06:11:40;;;;;;;73.93;13.27;;;7.80;99.90;;;;;;5043078;28;20621;-84
2022/10/10 06:14:08;;;;;;;72.37;12.90;;;7.80;99.90;;;;;;5025069;28;20173;-84
2022/10/10 06:16:35;;;;;;;70.47;11.15;;;7.80;99.90;;;;;;5024636;28;20200;-84
2022/10/10 06:19:02;;;;;;;76.22;14.32;;;7.90;99.90;;;;;;5023376;28;20220;-84
2022/10/10 06:21:28;;;;;;;74.68;13.50;;;7.90;99.90;;;;;;5024774;28;20630;-84
2022/10/10 06:23:53;;;;;;;74.07;13.93;;;7.90;99.90;;;;;;5020549;28;20177;-84
2022/10/10 06:26:19;;;;;;;75.57;11.80;;;8.00;99.90;;;;;;5020386;28;20177;-84
2022/10/10 06:28:45;;;;;;;76.57;12.50;;;8.10;99.90;;;;;;5020254;28;20446;-84
2022/10/10 06:31:12;;;;;;;74.90;10.93;;;8.10;99.90;;;;;;5020203;28;20200;-84
2022/10/10 06:33:42;;;;;;;78.65;12.68;;;8.20;99.90;;;;;;5021092;28;20545;-84
2022/10/10 06:36:07;;;;;;;76.15;13.10;;;8.20;99.90;;;;;;5020630;28;20161;-84
2022/10/10 06:38:38;;;;;;;79.10;12.03;;;8.20;99.90;;;;;;5039124;28;20223;-84
2022/10/10 06:41:05;;;;;;;77.90;13.02;;;8.20;99.90;;;;;;5022134;28;20478;-84
2022/10/10 06:43:31;;;;;;;70.80;12.45;;;8.30;99.90;;;;;;5022128;28;20169;-84
2022/10/10 06:45:58;;;;;;;71.40;12.20;;;8.40;99.90;;;;;;5021790;28;20169;-84
2022/10/10 06:48:24;;;;;;;69.28;11.57;;;8.40;99.90;;;;;;5040013;28;20181;-84
2022/10/10 06:51:04;;;;;;;70.88;12.25;;;8.50;99.90;;;;;;5022833;28;20189;-85
2022/10/10 06:53:30;;;;;;;71.80;11.30;;;8.50;99.90;;;;;;5019146;28;20533;-84
2022/10/10 06:55:57;;;;;;;74.47;12.83;;;8.60;99.90;;;;;;5044076;28;20157;-84
2022/10/10 06:58:27;;;;;;;74.68;11.27;;;8.70;99.90;;;;;;5022367;28;20431;-84
2022/10/10 07:01:03;;;;;;;76.57;12.27;;;8.70;99.90;;;;;;5043424;28;20169;-84
2022/10/10 07:03:30;;;;;;;73.25;14.45;;;8.80;99.90;;;;;;5042314;28;20187;-84
2022/10/10 07:06:00;;;;;;;72.00;14.70;;;8.90;99.90;;;;;;5025299;28;20169;-84
2022/10/10 07:08:27;;;;;;;73.63;14.13;;;9.00;99.90;;;;;;5042128;28;20207;-84
2022/10/10 07:10:56;;;;;;;72.45;14.85;;;9.10;99.90;;;;;;5042840;28;20217;-84
2022/10/10 07:13:22;;;;;;;74.22;13.52;;;9.20;99.90;;;;;;5040936;28;20162;-84
2022/10/10 07:15:48;;;;;;;74.53;17.33;;;9.30;99.90;;;;;;5023457;28;20181;-85
2022/10/10 07:18:15;;;;;;;77.70;17.07;;;9.40;99.90;;;;;;5040652;28;20241;-84
2022/10/10 07:20:41;;;;;;;75.55;18.40;;;9.50;99.90;;;;;;5040483;28;20169;-85
2022/10/10 07:23:10;;;;;;;74.20;14.83;;;9.60;99.90;;;;;;5040717;28;20169;-84
2022/10/10 07:25:40;;;;;;;79.90;15.90;;;9.70;99.90;;;;;;5044167;28;20532;-85
2022/10/10 07:28:09;;;;;;;73.70;13.60;;;9.80;99.90;;;;;;5026392;28;20193;-85
2022/10/10 07:30:42;;;;;;;71.90;12.63;;;9.80;99.90;;;;;;5027109;28;20201;-85
2022/10/10 07:33:09;;;;;;;70.72;12.90;;;9.90;99.90;;;;;;5044229;28;20157;-85
2022/10/10 07:35:35;;;;;;;72.07;11.88;;;10.00;99.90;;;;;;5026828;28;20173;-84
2022/10/10 07:38:01;;;;;;;70.57;11.77;;;10.00;99.90;;;;;;5025442;28;20181;-84
2022/10/10 07:40:26;;;;;;;70.63;11.65;;;10.20;99.90;;;;;;5043477;28;20170;-84
2022/10/10 07:42:52;;;;;;;72.80;12.60;;;10.20;99.90;;;;;;5044170;28;20169;-84
2022/10/10 07:45:18;;;;;;;75.00;13.70;;;10.30;99.90;;;;;;5045171;28;20653;-84
2022/10/10 07:47:46;;;;;;;70.37;11.47;;;10.30;99.90;;;;;;5043193;28;20172;-84
2022/10/10 07:50:12;;;;;;;83.60;12.30;;;10.50;99.90;;;;;;5025293;28;20190;-84
2022/10/10 07:52:39;;;;;;;72.17;14.30;;;10.60;99.90;;;;;;5024855;28;20629;-84
2022/10/10 07:55:06;;;;;;;72.22;11.77;;;10.70;99.90;;;;;;5043229;28;20949;-84
2022/10/10 07:57:38;;;;;;;72.82;13.35;;;10.80;99.90;;;;;;5177242;22;20250;-85
2022/10/10 08:00:06;;;;;;;71.47;11.00;;;10.90;99.90;;;;;;5042240;28;20213;-84
2022/10/10 08:02:35;;;;;;;71.47;9.95;;;11.00;99.90;;;;;;5025143;28;20169;-83
2022/10/10 08:05:04;;;;;;;71.03;10.13;;;11.10;99.90;;;;;;5025278;28;20181;-84
2022/10/10 08:07:30;;;;;;;72.05;11.35;;;11.20;99.90;;;;;;5043652;28;20170;-84
2022/10/10 08:09:55;;;;;;;72.20;11.47;;;11.30;99.90;;;;;;5042986;28;20231;-83
2022/10/10 08:12:27;;;;;;;71.60;10.77;;;11.30;99.90;;;;;;5025790;28;20619;-85
2022/10/10 08:14:53;;;;;;;72.13;11.73;;;11.50;99.90;;;;;;5048168;28;20233;-85
2022/10/10 08:17:18;;;;;;;72.17;11.70;;;11.60;99.90;;;;;;5047876;28;20660;-85
2022/10/10 08:19:50;;;;;;;70.87;10.27;;;11.60;99.90;;;;;;5047581;28;20836;-85
2022/10/10 08:22:15;;;;;;;72.82;11.57;;;11.70;99.90;;;;;;5043275;28;20200;-84
2022/10/10 08:24:43;;;;;;;79.27;17.17;;;11.80;99.90;;;;;;5042827;28;20169;-83
2022/10/10 08:27:09;;;;;;;73.72;15.00;;;11.90;99.90;;;;;;5043933;28;20192;-83
2022/10/10 08:29:38;;;;;;;84.67;15.80;;;11.90;99.90;;;;;;5026742;28;20192;-84
2022/10/10 08:32:04;;;;;;;74.75;11.85;;;12.00;99.90;;;;;;5042991;28;20162;-84
2022/10/10 08:34:29;;;;;;;70.80;13.67;;;12.00;99.90;;;;;;5025022;28;20176;-85
2022/10/10 08:36:55;;;;;;;79.50;12.97;;;12.10;99.90;;;;;;5041843;28;20537;-84
2022/10/10 08:39:23;;;;;;;74.77;13.03;;;12.10;99.90;;;;;;5024535;28;20600;-85
2022/10/10 08:42:12;;;;;;;73.80;13.10;;;12.20;99.90;;;;;;5044534;28;20157;-84
2022/10/10 08:44:51;;;;;;;75.60;14.30;;;12.20;99.90;;;;;;5029039;28;20223;-84
2022/10/10 08:47:41;;;;;;;72.15;14.95;;;12.30;99.90;;;;;;5045962;28;20636;-84
2022/10/10 08:50:25;;;;;;;83.90;19.73;;;12.40;99.90;;;;;;5043080;28;20676;-84
2022/10/10 08:53:10;;;;;;;75.05;15.55;;;12.40;99.90;;;;;;5027449;28;20176;-84
2022/10/10 08:55:42;;;;;;;71.82;12.27;;;12.60;99.90;;;;;;5044149;28;20550;-85
2022/10/10 08:58:44;;;;;;;73.50;13.23;;;12.70;99.90;;;;;;5041946;28;20201;-85
2022/10/10 09:01:22;;;;;;;72.70;13.93;;;12.70;99.90;;;;;;5024009;28;20214;-85
2022/10/10 09:03:55;;;;;;;74.10;15.55;;;12.80;99.90;;;;;;5022918;28;20162;-85
2022/10/10 09:06:52;;;;;;;74.80;13.23;;;12.90;99.90;;;;;;5040808;28;20154;-85
2022/10/10 09:09:39;;;;;;;70.53;9.73;;;13.10;99.90;;;;;;5040358;28;20601;-85
2022/10/10 09:12:14;;;;;;;73.78;13.15;;;13.20;99.90;;;;;;5023865;28;20518;-86
2022/10/10 09:14:54;;;;;;;71.68;12.82;;;13.40;99.90;;;;;;5040997;28;20177;-86
2022/10/10 09:17:34;;;;;;;73.93;14.97;;;13.60;99.90;;;;;;5042417;28;20160;-86
2022/10/10 09:20:23;;;;;;;72.17;15.17;;;13.80;99.90;;;;;;5041847;28;20391;-85
2022/10/10 09:23:00;;;;;;;75.97;18.63;;;13.90;99.90;;;;;;5041876;28;20400;-85
2022/10/10 09:25:34;;;;;;;88.55;30.77;;;14.00;99.90;;;;;;5041683;28;20475;-85
2022/10/10 09:28:26;;;;;;;82.40;35.83;;;14.10;99.90;;;;;;5022325;28;20235;-85
2022/10/10 09:30:57;;;;;;;72.47;18.63;;;14.30;99.90;;;;;;5020439;28;20550;-85
2022/10/10 09:33:33;;;;;;;70.33;15.47;;;14.40;99.90;;;;;;5022395;28;20431;-85
2022/10/10 09:36:03;;;;;;;72.07;13.47;;;14.50;99.90;;;;;;5040195;28;20419;-85
2022/10/10 09:38:40;;;;;;;70.07;9.27;;;14.70;99.90;;;;;;5039086;28;20542;-85
2022/10/10 09:41:28;;;;;;;68.47;10.17;;;14.90;99.90;;;;;;5039761;28;20410;-84
2022/10/10 09:43:57;;;;;;;73.03;13.53;;;15.00;99.90;;;;;;5039348;28;20380;-85
2022/10/10 09:46:24;;;;;;;71.47;16.03;;;15.30;99.90;;;;;;5040608;28;20400;-86
2022/10/10 09:48:54;;;;;;;67.30;10.10;;;15.50;99.90;;;;;;5023096;28;20903;-85
2022/10/10 09:51:20;;;;;;;68.20;8.20;;;15.70;99.90;;;;;;5021718;28;20447;-84
2022/10/10 09:53:47;;;;;;;67.60;6.63;;;15.90;99.90;;;;;;5037395;28;20546;-85
2022/10/10 09:56:20;;;;;;;67.67;6.60;;;16.00;99.90;;;;;;5039322;28;20415;-85
2022/10/10 09:58:48;;;;;;;69.20;7.43;;;16.10;99.90;;;;;;5021414;28;20458;-85
2022/10/10 10:01:24;;;;;;;70.20;6.40;;;16.50;99.90;;;;;;5039275;28;20963;-85
2022/10/10 10:04:08;;;;;;;68.10;6.30;;;16.70;99.90;;;;;;5039010;28;20411;-84
2022/10/10 10:06:35;;;;;;;69.37;6.87;;;16.80;99.90;;;;;;5023243;28;20442;-84
2022/10/10 10:09:03;;;;;;;66.90;6.43;;;17.00;99.90;;;;;;5040942;28;20440;-84
2022/10/10 10:11:38;;;;;;;68.37;6.03;;;17.10;98.40;;;;;;5039237;28;20450;-85
2022/10/10 10:14:20;;;;;;;71.67;5.57;;;17.40;99.50;;;;;;5035817;28;20439;-85
2022/10/10 10:16:45;;;;;;;65.67;5.20;;;17.50;87.90;;;;;;5018361;28;20457;-85
2022/10/10 10:19:31;;;;;;;68.40;4.73;;;17.50;73.40;;;;;;5020998;28;20430;-85
2022/10/10 10:21:57;;;;;;;73.53;5.90;;;17.50;77.60;;;;;;5038438;28;20153;-85
2022/10/10 10:24:31;;;;;;;66.80;5.60;;;17.50;74.30;;;;;;5039241;28;20408;-86
2022/10/10 10:27:24;;;;;;;71.27;5.77;;;17.50;75.10;;;;;;5021851;28;20434;-86
2022/10/10 10:29:55;;;;;;;69.87;5.70;;;17.50;82.60;;;;;;5039422;28;20478;-86
2022/10/10 10:32:32;;;;;;;70.00;4.73;;;17.60;82.30;;;;;;5039142;28;20741;-86
2022/10/10 10:35:27;;;;;;;66.60;4.47;;;17.60;80.20;;;;;;5027518;28;20424;-86
2022/10/10 10:38:30;;;;;;;70.90;5.03;;;17.60;69.60;;;;;;5043074;28;20420;-86
2022/10/10 10:41:02;;;;;;;71.97;5.50;;;17.60;59.20;;;;;;5025265;28;20416;-86
2022/10/10 10:43:47;;;;;;;68.80;5.27;;;17.50;61.80;;;;;;5025052;28;20890;-86
2022/10/10 10:46:39;;;;;;;66.17;4.70;;;17.60;59.80;;;;;;5043121;28;20391;-86
2022/10/10 10:49:27;;;;;;;71.10;5.33;;;17.60;59.40;;;;;;4995930;28;20429;-84
2022/10/10 10:52:15;;;;;;;67.07;5.20;;;17.70;48.90;;;;;;5039372;28;20420;-85
2022/10/10 10:55:02;;;;;;;70.37;6.07;;;17.80;52.10;;;;;;5040238;28;20379;-86
2022/10/10 10:57:49;;;;;;;68.07;5.63;;;18.00;51.10;;;;;;5040252;28;20499;-85
2022/10/10 11:00:18;;;;;;;71.67;4.60;;;18.40;45.70;;;;;;5043819;28;20388;-85
2022/10/10 11:03:08;;;;;;;70.10;5.33;;;18.70;30.50;;;;;;5025543;28;20438;-85
2022/10/10 11:06:05;;;;;;;67.10;3.93;;;18.70;24.40;;;;;;5044196;28;20400;-85
2022/10/10 11:09:18;;;;;;;69.80;4.67;;;19.00;29.90;;;;;;5107758;22;20501;-85
2022/10/10 11:11:43;;;;;;;70.50;4.67;;;19.40;20.30;;;;;;5033553;28;20464;-85
2022/10/10 11:14:33;;;;;;;70.20;6.47;;;19.50;10.60;;;;;;5037569;28;20498;-85
2022/10/10 11:17:18;;;;;;;70.67;5.70;;;19.70;1.00;;;;;;5036572;28;20154;-85
2022/10/10 11:19:58;;;;;;;75.07;6.20;;;19.90;1.00;;;;;;5020657;28;20431;-84
2022/10/10 11:22:40;;;;;;;72.20;5.97;;;20.10;1.00;;;;;;5038906;28;20399;-84
2022/10/10 11:25:20;;;;;;;73.23;6.80;;;20.10;1.70;;;;;;5051099;28;20389;-84
2022/10/10 11:27:59;;;;;;;70.67;5.90;;;20.10;1.00;;;;;;5051347;28;20421;-84
2022/10/10 11:30:28;;;;;;;70.50;5.37;;;20.20;1.00;;;;;;5051543;28;20455;-84
2022/10/10 11:33:06;;;;;;;70.17;6.40;;;20.20;1.00;;;;;;5049209;28;20381;-83
2022/10/10 11:35:34;;;;;;;68.50;5.17;;;20.10;1.00;;;;;;5042344;28;20376;-84
2022/10/10 11:38:10;;;;;;;74.47;6.37;;;20.00;1.00;;;;;;5044263;28;20546;-84
2022/10/10 11:41:02;;;;;;;69.97;5.80;;;20.00;1.00;;;;;;5029581;28;20396;-83
2022/10/10 11:43:42;;;;;;;71.50;5.63;;;19.90;1.00;;;;;;5050319;28;20427;-83
2022/10/10 11:46:28;;;;;;;72.57;6.43;;;19.80;1.00;;;;;;5048162;28;20874;-83
2022/10/10 11:49:15;;;;;;;76.20;5.53;;;19.90;1.00;;;;;;5048219;28;20443;-84
2022/10/10 11:52:02;;;;;;;70.80;4.37;;;19.80;1.00;;;;;;5044331;28;20436;-83
2022/10/10 11:54:54;;;;;;;73.50;4.80;;;20.00;1.00;;;;;;5026204;28;20419;-83
2022/10/10 11:57:28;;;;;;;82.10;5.63;;;20.00;1.00;;;;;;5047976;28;20383;-83
2022/10/10 12:00:12;;;;;;;70.97;5.90;;;20.20;1.00;;;;;;5045521;28;20420;-82
2022/10/10 12:02:39;;;;;;;80.13;5.40;;;20.30;1.00;;;;;;5046317;28;20381;-83
2022/10/10 12:05:17;;;;;;;71.30;4.90;;;20.40;1.00;;;;;;5047553;28;20392;-83
2022/10/10 12:07:56;;;;;;;70.57;4.50;;;20.50;1.00;;;;;;5048922;28;20448;-83
2022/10/10 12:10:34;;;;;;;74.80;5.10;;;20.60;1.00;;;;;;5048824;28;20454;-83
2022/10/10 12:13:51;;;;;;;70.17;4.30;;;20.50;1.00;;;;;;5046299;28;20412;-83
2022/10/10 12:16:20;;;;;;;69.93;3.80;;;20.30;1.00;;;;;;5025157;28;20509;-83
2022/10/10 12:18:50;;;;;;;68.30;4.40;;;20.20;1.00;;;;;;5048687;28;20431;-83
2022/10/10 12:21:24;;;;;;;71.90;4.83;;;20.20;1.00;;;;;;5048158;28;20414;-83
2022/10/10 12:24:11;;;;;;;71.63;4.97;;;20.10;1.00;;;;;;5047407;28;20436;-83
2022/10/10 12:26:55;;;;;;;73.53;6.40;;;20.00;1.00;;;;;;5047842;28;20475;-83
2022/10/10 12:29:46;;;;;;;71.50;4.80;;;20.10;1.00;;;;;;5047921;28;20583;-83
2022/10/10 12:32:16;;;;;;;69.57;4.77;;;20.10;1.00;;;;;;5044513;28;20401;-82
2022/10/10 12:34:48;;;;;;;70.47;5.17;;;20.10;1.00;;;;;;5045148;28;20402;-84
2022/10/10 12:37:29;;;;;;;68.40;4.80;;;20.20;1.00;;;;;;5028445;28;20416;-83
2022/10/10 12:40:19;;;;;;;68.50;4.10;;;20.10;1.00;;;;;;5027816;28;20429;-84
2022/10/10 12:42:48;;;;;;;74.17;4.87;;;20.20;1.00;;;;;;5046214;28;20951;-83
2022/10/10 12:45:29;;;;;;;70.30;5.40;;;20.20;1.00;;;;;;5046566;28;20483;-83
2022/10/10 12:48:17;;;;;;;67.90;4.13;;;20.30;1.00;;;;;;5046668;28;20458;-82
2022/10/10 12:50:52;;;;;;;71.03;4.33;;;20.30;1.00;;;;;;5045803;28;20535;-83
2022/10/10 12:53:20;;;;;;;70.60;4.73;;;20.30;1.00;;;;;;5047078;28;20390;-83
2022/10/10 12:55:49;;;;;;;72.67;4.37;;;20.40;1.00;;;;;;5029994;28;20415;-83
2022/10/10 12:58:29;;;;;;;69.73;5.00;;;20.30;1.00;;;;;;5046151;28;20433;-83
2022/10/10 13:00:57;;;;;;;69.27;4.07;;;20.40;1.00;;;;;;5046277;28;20411;-82